Main page
METAR-TAF:

METAR-TAF

Airports :

Geneva Airport

Geneva, Switzerland

latitude: 46-15N, longitude: 006-08E, elevation: 420 m

Current weather observation

The report was made 8 minutes ago, at 05:50 UTC
Wind 1 kt from the West/Northwest
Temperature 15°C
Humidity 94%
Pressure 1020 hPa
Visibility 10 km or more
no clouds below 1500 m and no cumulonimbus

METAR: LSGG 250550Z 30001KT CAVOK 15/14 Q1020 NOSIG

Time: 07:58 (05:58 UTC)

Forecast

The report was made 33 minutes ago, at 05:25 UTC
Forecast valid from 25 at 06 UTC to 26 at 12 UTC
Wind 3 kt from variable directions
Visibility 10 km or more
no clouds below 1500 m and no cumulonimbus

TAF: LSGG 250525Z 2506/2612 VRB03KT CAVOK TX29/2515Z TN14/2506Z TN13/2605Z

Weather observations and forecasts of more than 4000 airports (METAR and TAF reports).

The available stations are represented by yellow and red dots on the map.

Hover mouse over dot to see the name of the station.

Then click to see weather observations and forecasts.

To change the map : click on the green buttons with a black cross to zoom in, on the green button with a dash to zoom out, or on the green arrows for adjacent maps.


METAR-TAF: